Dades meteomassalio
Diari Summary for Juliol 31, 2017 Units:  Metric    English   Both
« Previous Day
Next Day »
Diari Semanal Mensual Anual Personalitzat
  Maxima: Minima: Mijana:
Temperatura: -17.8 °C -7.4 °C -2.2 °C
Rosada: -17.8 °C -11.1 °C -8.5 °C
Humitat: Humidity % 24 % 53 %
Velocitat del vent: 0 km/h 0 km/h 15.8 km/h
Racha vent: 0 km/h - -
Vent:- - SE
Pressio: 0 hPa 34005.6 hPa -
Pluja: 0 mm    
Historical Graphs
 
 
Tabular Data for Juliol 31, 2017
Time Temperature Dew Point Pressure Wind Wind Speed Wind Gust Humidity Rainfall Rate (Hourly) solar Conditions
-17.8 °C -17.8 °C 0 hPa Calm     Humidity % 0 mm SolarRadiationWatts/m^2 W/m2 Conditions
00:03 -3.2 °C -7.4 °C 34130.9 hPa Calm     63 % 0 mm 0.0 W/m2 CLR
00:09 -3.3 °C -7.2 °C 34130.9 hPa Calm     65 % 0 mm 0.0 W/m2 CLR
00:14 -3.3 °C -7.3 °C 34144.4 hPa Calm     65 % 0 mm 0.0 W/m2 CLR
00:19 -3.4 °C -7.3 °C 34130.9 hPa Calm     65 % 0 mm 0.0 W/m2 CLR
00:24 -3.4 °C -7.2 °C 34130.9 hPa Calm     66 % 0 mm 0.0 W/m2 CLR
00:29 -3.4 °C -7.3 °C 34130.9 hPa Calm     66 % 0 mm 0.0 W/m2 CLR
00:34 -3.5 °C -7.3 °C 34130.9 hPa Calm     66 % 0 mm 0.0 W/m2 CLR
00:39 -3.5 °C -7.4 °C 34130.9 hPa Calm     65 % 0 mm 0.0 W/m2 CLR
00:44 -3.5 °C -7.3 °C 34130.9 hPa Calm     66 % 0 mm 0.0 W/m2 CLR
00:49 -3.5 °C -7.3 °C 34130.9 hPa Calm     66 % 0 mm 0.0 W/m2 CLR
00:54 -3.4 °C -7.4 °C 34130.9 hPa Calm     65 % 0 mm 0.0 W/m2 CLR
00:59 -3.4 °C -7.4 °C 34130.9 hPa Calm     65 % 0 mm 0.0 W/m2 CLR
01:04 -3.4 °C -7.3 °C 34130.9 hPa Calm     66 % 0 mm 0.0 W/m2 CLR
01:09 -3.5 °C -7.2 °C 34130.9 hPa ENE 9 km/h 9 km/h 67 % 0 mm 0.0 W/m2 CLR
01:14 -3.5 °C -7.2 °C 34130.9 hPa ENE 6 km/h   67 % 0 mm 0.0 W/m2 CLR
01:19 -3.5 °C -7.2 °C 34130.9 hPa Calm     67 % 0 mm 0.0 W/m2 CLR
01:24 -3.6 °C -7.2 °C 34144.4 hPa North 12.9 km/h 12.9 km/h 67 % 0 mm 0.0 W/m2 CLR
01:29 -3.6 °C -7.2 °C 34154.6 hPa NNW 26.9 km/h 26.9 km/h 67 % 0 mm 0.0 W/m2 CLR
01:34 -3.6 °C -7.4 °C 34154.6 hPa Calm     65 % 0 mm 0.0 W/m2 CLR
01:35 -3.6 °C -7.4 °C 34154.6 hPa Calm     65 % 0 mm 0.0 W/m2 CLR
01:39 -3.4 °C -7.1 °C 34154.6 hPa NNE 12.9 km/h 12.9 km/h 67 % 0 mm 0.0 W/m2 CLR
01:44 -3.6 °C -7 °C 34164.7 hPa NNW 18.2 km/h 18.2 km/h 69 % 0 mm 0.0 W/m2 CLR
01:49 -3.7 °C -7.1 °C 34154.6 hPa ENE 6 km/h   69 % 0 mm 0.0 W/m2 CLR
01:54 -3.7 °C -7 °C 34154.6 hPa Calm     70 % 0 mm 0.0 W/m2 CLR
01:59 -3.8 °C -6.9 °C 34154.6 hPa Calm     71 % 0 mm 0.0 W/m2 CLR
02:04 -3.9 °C -6.8 °C 34154.6 hPa NNE 9 km/h 9 km/h 73 % 0 mm 0.0 W/m2 CLR
02:09 -4 °C -6.7 °C 34154.6 hPa North 5.1 km/h 5.1 km/h 74 % 0 mm 0.0 W/m2 CLR
02:14 -4.1 °C -6.7 °C 34164.7 hPa NW 10.3 km/h 10.3 km/h 75 % 0 mm 0.0 W/m2 CLR
02:19 -4.1 °C -6.8 °C 34164.7 hPa Calm     74 % 0 mm 0.0 W/m2 CLR
02:24 -4.1 °C -6.8 °C 34164.7 hPa Calm     74 % 0 mm 0.0 W/m2 CLR
02:29 -4.1 °C -6.8 °C 34164.7 hPa Calm     74 % 0 mm 0.0 W/m2 CLR
02:34 -4.1 °C -6.8 °C 34164.7 hPa Calm     74 % 0 mm 0.0 W/m2 CLR
02:39 -4.1 °C -7 °C 34178.3 hPa WNW 15 km/h 15 km/h 73 % 0 mm 0.0 W/m2 CLR
02:44 -4.1 °C -6.8 °C 34178.3 hPa WNW 11.9 km/h 11.9 km/h 74 % 0 mm 0.0 W/m2 CLR
02:49 -4 °C -6.6 °C 34178.3 hPa WNW 26.9 km/h 26.9 km/h 75 % 0 mm 0.0 W/m2 CLR
02:54 -4 °C -6.6 °C 34178.3 hPa Calm     75 % 0 mm 0.0 W/m2 CLR
02:59 -4 °C -6.5 °C 34178.3 hPa Calm     76 % 0 mm 0.0 W/m2 CLR
03:04 -4.1 °C -6.4 °C 34178.3 hPa Calm     77 % 0 mm 0.0 W/m2 CLR
03:09 -4.1 °C -6.5 °C 34178.3 hPa Calm     77 % 0 mm 0.0 W/m2 CLR
03:14 -4.2 °C -6.4 °C 34178.3 hPa Calm     78 % 0 mm 0.0 W/m2 CLR
03:19 -4.2 °C -6.6 °C 34178.3 hPa WNW 17.9 km/h 17.9 km/h 77 % 0 mm 0.0 W/m2 CLR
03:24 -4.3 °C -6.8 °C 34178.3 hPa West 11.9 km/h 11.9 km/h 76 % 0 mm 0.0 W/m2 CLR
03:29 -4.3 °C -7.1 °C 34178.3 hPa WSW 9 km/h 9 km/h 74 % 0 mm 0.0 W/m2 CLR
03:34 -4.4 °C -7.4 °C 34178.3 hPa WNW 10.3 km/h 10.3 km/h 72 % 0 mm 0.0 W/m2 CLR
03:39 -4.4 °C -7.4 °C 34178.3 hPa Calm     72 % 0 mm 0.0 W/m2 CLR
03:44 -4.5 °C -7.7 °C 34178.3 hPa WNW 11.9 km/h 11.9 km/h 70 % 0 mm 0.0 W/m2 CLR
03:49 -4.6 °C -7.9 °C 34178.3 hPa Calm     69 % 0 mm 0.0 W/m2 CLR
03:54 -4.6 °C -7.9 °C 34178.3 hPa Calm     69 % 0 mm 0.0 W/m2 CLR
03:59 -4.7 °C -8 °C 34188.4 hPa Calm     69 % 0 mm 0.0 W/m2 CLR
04:00 -4.7 °C -8.1 °C 34188.4 hPa Calm     69 % 0 mm 0.0 W/m2 CLR
04:05 -4.8 °C -8.2 °C 34188.4 hPa Calm     68 % 0 mm 0.0 W/m2 CLR
04:10 -4.8 °C -8.3 °C 34188.4 hPa Calm     68 % 0 mm 0.0 W/m2 CLR
04:16 -4.8 °C -8.4 °C 34188.4 hPa Calm     67 % 0 mm 0.0 W/m2 CLR
04:21 -4.9 °C -8.4 °C 34188.4 hPa Calm     67 % 0 mm 0.0 W/m2 CLR
04:25 -4.9 °C -8.5 °C 34188.4 hPa Calm     67 % 0 mm 0.0 W/m2 CLR
04:31 -5.1 °C -8.5 °C 34188.4 hPa Calm     68 % 0 mm 0.0 W/m2 CLR
04:36 -5.1 °C -8.4 °C 34188.4 hPa Calm     69 % 0 mm 0.0 W/m2 CLR
04:41 -5.2 °C -8.5 °C 34188.4 hPa Calm     69 % 0 mm 0.0 W/m2 CLR
04:46 -5.2 °C -8.6 °C 34188.4 hPa Calm     69 % 0 mm 0.0 W/m2 CLR
04:51 -5.3 °C -8.5 °C 34188.4 hPa Calm     70 % 0 mm 0.0 W/m2 CLR
04:56 -5.4 °C -8.4 °C 34188.4 hPa Calm     71 % 0 mm 0.0 W/m2 CLR
05:01 -5.5 °C -8.6 °C 34188.4 hPa Calm     71 % 0 mm 0.0 W/m2 CLR
05:06 -5.6 °C -8.7 °C 34188.4 hPa Calm     71 % 0 mm 0.0 W/m2 CLR
05:11 -5.7 °C -8.7 °C 34188.4 hPa Calm     71 % 0 mm 0.0 W/m2 CLR
05:16 -5.7 °C -8.7 °C 34188.4 hPa Calm     72 % 0 mm 0.0 W/m2 CLR
05:21 -5.8 °C -8.7 °C 34188.4 hPa Calm     73 % 0 mm 0.0 W/m2 CLR
05:26 -5.9 °C -8.7 °C 34188.4 hPa Calm     73 % 0 mm 0.0 W/m2 CLR
05:31 -5.9 °C -8.8 °C 34188.4 hPa Calm     73 % 0 mm 0.0 W/m2 CLR
05:36 -6.1 °C -8.7 °C 34188.4 hPa Calm     74 % 0 mm 0.0 W/m2 CLR
05:41 -6.1 °C -8.8 °C 34188.4 hPa Calm     74 % 0 mm 0.0 W/m2 CLR
05:46 -6.2 °C -8.9 °C 34188.4 hPa Calm     74 % 0 mm 0.0 W/m2 CLR
05:51 -6.3 °C -8.9 °C 34188.4 hPa Calm     75 % 0 mm 0.0 W/m2 CLR
05:56 -6.4 °C -8.9 °C 34188.4 hPa Calm     75 % 0 mm 0.0 W/m2 CLR
06:01 -6.5 °C -8.9 °C 34188.4 hPa Calm     76 % 0 mm 0.0 W/m2 CLR
06:06 -6.6 °C -9.1 °C 34188.4 hPa Calm     76 % 0 mm 0.0 W/m2 CLR
06:11 -6.7 °C -9.1 °C 34188.4 hPa Calm     76 % 0 mm 0.0 W/m2 CLR
06:16 -6.7 °C -9.1 °C 34188.4 hPa Calm     77 % 0 mm 0.0 W/m2 CLR
06:21 -6.8 °C -9.1 °C 34188.4 hPa Calm     77 % 0 mm 0.0 W/m2 CLR
06:26 -6.8 °C -9.1 °C 34188.4 hPa Calm     77 % 0 mm 0.0 W/m2 CLR
06:31 -6.9 °C -9.2 °C 34188.4 hPa Calm     77 % 0 mm 0.0 W/m2 CLR
06:36 -6.9 °C -9.1 °C 34188.4 hPa Calm     78 % 0 mm 0.0 W/m2 CLR
06:41 -7 °C -9.2 °C 34188.4 hPa Calm     78 % 0 mm 0.0 W/m2 CLR
06:46 -7.1 °C -9.3 °C 34188.4 hPa Calm     78 % 0 mm 0.0 W/m2 OVC
06:51 -7.2 °C -9.3 °C 34188.4 hPa Calm     78 % 0 mm 0.0 W/m2 OVC
06:56 -7.3 °C -9.3 °C 34188.4 hPa Calm     79 % 0 mm 0.0 W/m2 OVC
06:57 -7.3 °C -9.3 °C 34198.6 hPa Calm     79 % 0 mm 0.0 W/m2 OVC
07:02 -7.3 °C -9.4 °C 34198.6 hPa Calm     79 % 0 mm 7.0 W/m2 BKN
07:07 -7.4 °C -9.3 °C 34198.6 hPa Calm     80 % 0 mm 11.0 W/m2 BKN
07:12 -7.4 °C -9.3 °C 34198.6 hPa Calm     80 % 0 mm 14.0 W/m2 BKN
07:17 -7.4 °C -9.3 °C 34198.6 hPa Calm     81 % 0 mm 18.0 W/m2 BKN
07:22 -7.4 °C -9.4 °C 34198.6 hPa Calm     80 % 0 mm 23.0 W/m2 BKN
07:27 -7.4 °C -9.4 °C 34198.6 hPa Calm     80 % 0 mm 26.0 W/m2 BKN
07:32 -7.4 °C -9.4 °C 34198.6 hPa Calm     80 % 0 mm 33.0 W/m2 BKN
07:37 -7.4 °C -9.3 °C 34198.6 hPa Calm     80 % 0 mm 35.0 W/m2 BKN
07:42 -7.3 °C -9.3 °C 34198.6 hPa Calm     80 % 0 mm 47.0 W/m2 SCT
07:47 -7.3 °C -9.3 °C 34198.6 hPa Calm     80 % 0 mm 58.0 W/m2 SCT
07:52 -7.3 °C -9.2 °C 34198.6 hPa Calm     80 % 0 mm 72.0 W/m2 FEW
07:57 -7.2 °C -9.3 °C 34198.6 hPa Calm     79 % 0 mm 83.0 W/m2 FEW
08:02 -7.1 °C -9.1 °C 34198.6 hPa Calm     80 % 0 mm 95.0 W/m2 FEW
08:07 -7 °C -9.2 °C 34198.6 hPa Calm     78 % 0 mm 111.0 W/m2 CLR
08:12 -6.8 °C -9.1 °C 34198.6 hPa Calm     77 % 0 mm 127.0 W/m2 CLR
08:17 -6.7 °C -9 °C 34198.6 hPa Calm     77 % 0 mm 144.0 W/m2 CLR
08:22 -6.6 °C -8.7 °C 34198.6 hPa Calm     78 % 0 mm 134.0 W/m2 CLR
08:27 -6.4 °C -8.7 °C 34198.6 hPa Calm     77 % 0 mm 174.0 W/m2 CLR
08:32 -6.2 °C -8.6 °C 34198.6 hPa Calm     76 % 0 mm 193.0 W/m2 CLR
08:37 -6 °C -8.6 °C 34198.6 hPa Calm     75 % 0 mm 211.0 W/m2 CLR
08:42 -5.9 °C -8.6 °C 34198.6 hPa Calm     74 % 0 mm 223.0 W/m2 CLR
08:47 -5.8 °C -8.7 °C 34198.6 hPa Calm     72 % 0 mm 211.0 W/m2 CLR
08:52 -5.7 °C -8.6 °C 34198.6 hPa Calm     72 % 0 mm 251.0 W/m2 CLR
08:57 -5.5 °C -8.6 °C 34198.6 hPa Calm     71 % 0 mm 264.0 W/m2 CLR
09:02 -5.3 °C -8.5 °C 34198.6 hPa Calm     70 % 0 mm 281.0 W/m2 CLR
09:07 -5.1 °C -8.4 °C 34198.6 hPa Calm     69 % 0 mm 299.0 W/m2 CLR
09:12 -4.9 °C -8.4 °C 34198.6 hPa Calm     68 % 0 mm 315.0 W/m2 CLR
09:17 -4.8 °C -8.4 °C 34198.6 hPa Calm     67 % 0 mm 330.0 W/m2 CLR
09:22 -4.8 °C -8.4 °C 34198.6 hPa Calm     67 % 0 mm 343.0 W/m2 CLR
09:27 -4.7 °C -8.4 °C 34198.6 hPa Calm     66 % 0 mm 359.0 W/m2 CLR
09:32 -4.5 °C -8.4 °C 34198.6 hPa Calm     65 % 0 mm 374.0 W/m2 CLR
09:37 -4.3 °C -8.3 °C 34198.6 hPa Calm     64 % 0 mm 387.0 W/m2 CLR
09:42 -4.2 °C -8.4 °C 34198.6 hPa Calm     63 % 0 mm 408.0 W/m2 CLR
09:47 -4.3 °C -8.4 °C 34198.6 hPa Calm     63 % 0 mm 272.0 W/m2 CLR
09:52 -4.3 °C -8.4 °C 34198.6 hPa Calm     63 % 0 mm 165.0 W/m2 CLR
09:57 -4.2 °C -8.3 °C 34198.6 hPa Calm     63 % 0 mm 454.0 W/m2 CLR
10:02 -4.2 °C -8.3 °C 34198.6 hPa ENE 11.9 km/h 11.9 km/h 63 % 0 mm 471.0 W/m2 CLR
10:07 -4.1 °C -8.3 °C 34188.4 hPa ENE 6 km/h 6 km/h 63 % 0 mm 483.0 W/m2 CLR
10:12 -4 °C -8.2 °C 34188.4 hPa Calm   0.5 km/h 63 % 0 mm 497.0 W/m2 CLR
10:17 -3.8 °C -8.2 °C 34188.4 hPa NE 9 km/h 9 km/h 62 % 0 mm 513.0 W/m2 CLR
10:22 -3.8 °C -8.3 °C 34188.4 hPa NE 9 km/h 9 km/h 61 % 0 mm 526.0 W/m2 CLR
10:27 -3.8 °C -8.3 °C 34188.4 hPa ENE 9 km/h   61 % 0 mm 548.0 W/m2 CLR
10:32 -3.8 °C -8.2 °C 34188.4 hPa Calm     62 % 0 mm 563.0 W/m2 CLR
10:37 -3.7 °C -8.1 °C 34188.4 hPa ENE 10.3 km/h 10.3 km/h 62 % 0 mm 578.0 W/m2 CLR
10:42 -3.4 °C -7.9 °C 34188.4 hPa NE 9 km/h 9 km/h 61 % 0 mm 592.0 W/m2 CLR
10:47 -3.3 °C -7.8 °C 34188.4 hPa Calm     61 % 0 mm 606.0 W/m2 CLR
10:52 -3.3 °C -8.1 °C 34188.4 hPa Calm     59 % 0 mm 621.0 W/m2 CLR
10:54 -3.2 °C -7.9 °C 34188.4 hPa Calm     60 % 0 mm 624.0 W/m2 CLR
10:59 -3.1 °C -7.9 °C 34188.4 hPa Calm     59 % 0 mm 640.0 W/m2 CLR
11:04 -3 °C -7.8 °C 34188.4 hPa ENE 15 km/h 15 km/h 59 % 0 mm 652.0 W/m2 CLR
11:09 -3 °C -7.8 °C 34178.3 hPa ENE 15.6 km/h 15.6 km/h 59 % 0 mm 661.0 W/m2 CLR
11:14 -2.9 °C -7.7 °C 34178.3 hPa Calm     59 % 0 mm 673.0 W/m2 CLR
11:19 -2.8 °C -7.7 °C 34178.3 hPa NE 12.9 km/h 12.9 km/h 59 % 0 mm 680.0 W/m2 CLR
11:24 -2.7 °C -7.5 °C 34178.3 hPa NE 12.9 km/h 12.9 km/h 59 % 0 mm 698.0 W/m2 CLR
11:29 -2.6 °C -7.6 °C 34178.3 hPa Calm     58 % 0 mm 708.0 W/m2 CLR
11:34 -2.5 °C -7.5 °C 34178.3 hPa NE 11.9 km/h 11.9 km/h 58 % 0 mm 719.0 W/m2 CLR
11:39 -2.4 °C -7.4 °C 34178.3 hPa Calm     58 % 0 mm 729.0 W/m2 CLR
11:44 -2.2 °C -7.4 °C 34178.3 hPa Calm     57 % 0 mm 742.0 W/m2 CLR
11:49 -2.2 °C -7.3 °C 34164.7 hPa NE 15.6 km/h 15.6 km/h 57 % 0 mm 751.0 W/m2 CLR
11:54 -2.2 °C -7.3 °C 34164.7 hPa ENE 17.9 km/h 17.9 km/h 57 % 0 mm 761.0 W/m2 CLR
11:59 -2.2 °C -7.3 °C 34164.7 hPa East 9 km/h 9 km/h 57 % 0 mm 770.0 W/m2 CLR
12:04 -2.2 °C -7.2 °C 34164.7 hPa ENE 23.8 km/h 23.8 km/h 58 % 0 mm 779.0 W/m2 CLR
12:09 -2.1 °C -7.2 °C 34164.7 hPa East 3.1 km/h   58 % 0 mm 789.0 W/m2 CLR
12:14 -2.1 °C -7.2 °C 34164.7 hPa ENE 17.9 km/h 17.9 km/h 58 % 0 mm 793.0 W/m2 CLR
12:19 -2 °C -7 °C 34164.7 hPa NE 15 km/h 15 km/h 58 % 0 mm 802.0 W/m2 CLR
12:24 -1.8 °C -7.1 °C 34154.6 hPa NE 20.9 km/h 20.9 km/h 56 % 0 mm 812.0 W/m2 CLR
12:29 -1.7 °C -7.1 °C 34154.6 hPa NE 10.3 km/h 10.3 km/h 56 % 0 mm 817.0 W/m2 CLR
12:34 -1.5 °C -6.9 °C 34154.6 hPa NNE 11.9 km/h 11.9 km/h 56 % 0 mm 826.0 W/m2 CLR
12:39 -1.3 °C -6.8 °C 34144.4 hPa NNE 23.8 km/h 23.8 km/h 55 % 0 mm 831.0 W/m2 CLR
12:44 -1.2 °C -6.8 °C 34144.4 hPa ENE 17.9 km/h 17.9 km/h 55 % 0 mm 840.0 W/m2 CLR
12:45 -1.2 °C -6.7 °C 34144.4 hPa NE 17.9 km/h 17.9 km/h 55 % 0 mm 840.0 W/m2 CLR
12:50 -1 °C -6.7 °C 34144.4 hPa NE 17.9 km/h 17.9 km/h 54 % 0 mm 846.0 W/m2 CLR
12:55 -0.8 °C -6.6 °C 34130.9 hPa NE 15.6 km/h 15.6 km/h 54 % 0 mm 858.0 W/m2 CLR
13:00 -0.6 °C -6.3 °C 34130.9 hPa NE 23.3 km/h 23.3 km/h 54 % 0 mm 863.0 W/m2 CLR
13:05 -0.4 °C -6.3 °C 34130.9 hPa ENE 9 km/h   53 % 0 mm 863.0 W/m2 CLR
13:10 -0.3 °C -6.3 °C 34130.9 hPa NNE 20.8 km/h 20.8 km/h 53 % 0 mm 868.0 W/m2 CLR
13:15 -0.2 °C -6.4 °C 34120.7 hPa NE 20.8 km/h 20.8 km/h 52 % 0 mm 870.0 W/m2 CLR
13:20 -0.2 °C -6.3 °C 34120.7 hPa ENE 17.9 km/h 17.9 km/h 52 % 0 mm 877.0 W/m2 CLR
13:25 -0.1 °C -6.2 °C 34120.7 hPa NE 18.2 km/h 18.2 km/h 52 % 0 mm 886.0 W/m2 CLR
13:30 0.2 °C -6.2 °C 34120.7 hPa NE 20.9 km/h 20.9 km/h 51 % 0 mm 882.0 W/m2 CLR
13:35 0.2 °C -6.2 °C 34107.2 hPa East 15.6 km/h 15.6 km/h 51 % 0 mm 886.0 W/m2 CLR
13:40 0.3 °C -6.3 °C 34107.2 hPa NE 26.9 km/h 26.9 km/h 50 % 0 mm 888.0 W/m2 CLR
13:41 0.3 °C -6 °C 34107.2 hPa ENE 20.9 km/h 20.9 km/h 51 % 0 mm 889.0 W/m2 CLR
13:46 0.6 °C -6.2 °C 34107.2 hPa ENE 9 km/h 9 km/h 49 % 0 mm 888.0 W/m2 CLR
13:51 0.6 °C -6.2 °C 34107.2 hPa ENE 29.8 km/h 29.8 km/h 49 % 0 mm 891.0 W/m2 CLR
13:56 0.8 °C -6.1 °C 34097 hPa East 20.9 km/h 20.9 km/h 48 % 0 mm 896.0 W/m2 CLR
14:01 0.9 °C -6.4 °C 34097 hPa ESE 20.9 km/h 20.9 km/h 46 % 0 mm 896.0 W/m2 CLR
14:06 0.9 °C -6.4 °C 34097 hPa ESE 17.9 km/h 17.9 km/h 46 % 0 mm 896.0 W/m2 CLR
14:11 1.1 °C -6.5 °C 34097 hPa ENE 20.9 km/h 20.9 km/h 45 % 0 mm 893.0 W/m2 CLR
14:16 1.2 °C -6.8 °C 34097 hPa East 26.9 km/h 26.9 km/h 43 % 0 mm 898.0 W/m2 CLR
14:21 1.4 °C -6.8 °C 34086.9 hPa East 23.8 km/h 23.8 km/h 42 % 0 mm 905.0 W/m2 CLR
14:26 1.6 °C -6.9 °C 34086.9 hPa East 26.9 km/h 26.9 km/h 41 % 0 mm 833.0 W/m2 CLR
14:31 1.8 °C -6.9 °C 34086.9 hPa East 29.8 km/h 29.8 km/h 40 % 0 mm 842.0 W/m2 CLR
14:36 1.9 °C -6.6 °C 34086.9 hPa ESE 26.9 km/h 26.9 km/h 41 % 0 mm 821.0 W/m2 CLR
14:41 2.1 °C -6.9 °C 34073.3 hPa ESE 31.1 km/h 31.1 km/h 39 % 0 mm 868.0 W/m2 CLR
14:46 2 °C -6.9 °C 34073.3 hPa East 32.8 km/h 32.8 km/h 39 % 0 mm 891.0 W/m2 CLR
14:51 1.9 °C -7.2 °C 34073.3 hPa SE 38.8 km/h 38.8 km/h 38 % 0 mm 889.0 W/m2 CLR
14:56 2.1 °C -10.1 °C 34073.3 hPa SSE 17.9 km/h 17.9 km/h 27 % 0 mm 891.0 W/m2 CLR
15:01 2.7 °C -9.9 °C 34073.3 hPa South 20.9 km/h 20.9 km/h 26 % 0 mm 884.0 W/m2 CLR
15:06 3 °C -10.3 °C 34073.3 hPa SW 44.7 km/h 44.7 km/h 24 % 0 mm 875.0 W/m2 CLR
15:11 3.1 °C -9.9 °C 34063.2 hPa South 35.7 km/h 35.7 km/h 25 % 0 mm 865.0 W/m2 CLR
15:16 3.1 °C -9.9 °C 34063.2 hPa South 38.8 km/h 38.8 km/h 25 % 0 mm 868.0 W/m2 CLR
15:21 3.1 °C -9.9 °C 34073.3 hPa SE 44.7 km/h 44.7 km/h 25 % 0 mm 798.0 W/m2 CLR
15:26 2.3 °C -7.7 °C 34063.2 hPa SE 68.6 km/h 68.6 km/h 35 % 0 mm 724.0 W/m2 CLR
15:31 2.1 °C -7.6 °C 34063.2 hPa SSE 38.8 km/h 38.8 km/h 36 % 0 mm 661.0 W/m2 CLR
15:36 2.1 °C -8.1 °C 34063.2 hPa SE 50.7 km/h 50.7 km/h 34 % 0 mm 816.0 W/m2 CLR
15:41 2.1 °C -7.9 °C 34063.2 hPa SE 62.6 km/h 62.6 km/h 35 % 0 mm 788.0 W/m2 CLR
15:46 2 °C -8.2 °C 34063.2 hPa East 51.8 km/h 51.8 km/h 34 % 0 mm 830.0 W/m2 CLR
15:51 2 °C -7.9 °C 34063.2 hPa ESE 50.7 km/h 50.7 km/h 35 % 0 mm 805.0 W/m2 CLR
15:56 1.8 °C -7.4 °C 34063.2 hPa East 38.8 km/h 38.8 km/h 38 % 0 mm 809.0 W/m2 CLR
16:01 1.9 °C -7.7 °C 34049.6 hPa ESE 38.8 km/h 38.8 km/h 36 % 0 mm 798.0 W/m2 CLR
16:06 2 °C -8.2 °C 34049.6 hPa ESE 50.7 km/h 50.7 km/h 34 % 0 mm 807.0 W/m2 CLR
16:11 2 °C -8.2 °C 34039.5 hPa ESE 41.7 km/h 41.7 km/h 34 % 0 mm 814.0 W/m2 CLR
16:16 1.9 °C -7.7 °C 34039.5 hPa SE 50.7 km/h 50.7 km/h 36 % 0 mm 798.0 W/m2 CLR
16:21 2.1 °C -8.3 °C 34039.5 hPa SE 65.5 km/h 65.5 km/h 33 % 0 mm 721.0 W/m2 CLR
16:26 1.9 °C -7.9 °C 34039.5 hPa SE 47.6 km/h 47.6 km/h 35 % 0 mm 784.0 W/m2 CLR
16:31 1.9 °C -8.8 °C 34039.5 hPa SE 59.5 km/h 59.5 km/h 32 % 0 mm 791.0 W/m2 CLR
16:36 2.3 °C -9.6 °C 34039.5 hPa SE 44.7 km/h 44.7 km/h 28 % 0 mm 772.0 W/m2 CLR
16:41 2.6 °C -9.7 °C 34039.5 hPa SE 44.1 km/h 44.1 km/h 27 % 0 mm 726.0 W/m2 CLR
16:46 2.7 °C -9.2 °C 34039.5 hPa ESE 41.7 km/h 41.7 km/h 28 % 0 mm 717.0 W/m2 CLR
16:51 2.8 °C -10.2 °C 34039.5 hPa ESE 41.7 km/h 41.7 km/h 25 % 0 mm 714.0 W/m2 CLR
16:56 2.7 °C -9.6 °C 34039.5 hPa SE 41.7 km/h 41.7 km/h 27 % 0 mm 698.0 W/m2 CLR
17:01 2.4 °C -9.8 °C 34039.5 hPa SSE 53.6 km/h 53.6 km/h 27 % 0 mm 687.0 W/m2 CLR
17:06 2.3 °C -9.3 °C 34039.5 hPa SSE 49.2 km/h 49.2 km/h 29 % 0 mm 666.0 W/m2 CLR
17:11 2.2 °C -8.8 °C 34029.3 hPa ESE 47.6 km/h 47.6 km/h 31 % 0 mm 652.0 W/m2 CLR
17:16 2.1 °C -8.9 °C 34029.3 hPa ESE 38.8 km/h 38.8 km/h 31 % 0 mm 636.0 W/m2 CLR
17:21 2.1 °C -9.2 °C 34029.3 hPa SE 29.8 km/h 29.8 km/h 30 % 0 mm 621.0 W/m2 CLR
17:27 2.1 °C -9.2 °C 34029.3 hPa ESE 33.6 km/h 33.6 km/h 30 % 0 mm 608.0 W/m2 CLR
17:32 2.2 °C -8.6 °C 34029.3 hPa ESE 44.1 km/h 44.1 km/h 32 % 0 mm 591.0 W/m2 CLR
17:37 2.1 °C -8.7 °C 34015.8 hPa ESE 20.9 km/h 20.9 km/h 32 % 0 mm 577.0 W/m2 CLR
17:42 2.1 °C -8.7 °C 34029.3 hPa SSE 29.8 km/h 29.8 km/h 32 % 0 mm 566.0 W/m2 CLR
17:47 2 °C -8.7 °C 34015.8 hPa SE 29.8 km/h 29.8 km/h 32 % 0 mm 552.0 W/m2 CLR
17:52 1.9 °C -9 °C 34015.8 hPa ESE 26.9 km/h 26.9 km/h 31 % 0 mm 541.0 W/m2 CLR
17:57 1.9 °C -8.7 °C 34029.3 hPa SE 35.7 km/h 35.7 km/h 32 % 0 mm 526.0 W/m2 CLR
18:02 1.9 °C -8.8 °C 34015.8 hPa SE 26.9 km/h 26.9 km/h 32 % 0 mm 513.0 W/m2 CLR
18:07 1.8 °C -8.8 °C 34015.8 hPa SE 32.8 km/h 32.8 km/h 32 % 0 mm 499.0 W/m2 CLR
18:12 1.8 °C -9.1 °C 34015.8 hPa ESE 20.9 km/h 20.9 km/h 31 % 0 mm 482.0 W/m2 CLR
18:17 1.9 °C -9.3 °C 34015.8 hPa SE 41.7 km/h 41.7 km/h 30 % 0 mm 466.0 W/m2 CLR
18:22 1.9 °C -9.3 °C 34015.8 hPa SE 32.8 km/h 32.8 km/h 30 % 0 mm 448.0 W/m2 CLR
18:27 1.9 °C -9.3 °C 34015.8 hPa ESE 33.6 km/h 33.6 km/h 30 % 0 mm 431.0 W/m2 CLR
18:32 1.9 °C -9.3 °C 34015.8 hPa SE 28.5 km/h 28.5 km/h 30 % 0 mm 415.0 W/m2 CLR
18:37 1.9 °C -9.1 °C 34015.8 hPa ESE 35.7 km/h 35.7 km/h 31 % 0 mm 397.0 W/m2 CLR
18:42 1.8 °C -8.8 °C 34015.8 hPa SSE 29.8 km/h 29.8 km/h 32 % 0 mm 385.0 W/m2 CLR
18:47 1.8 °C -8.8 °C 34015.8 hPa SE 20.9 km/h 20.9 km/h 32 % 0 mm 367.0 W/m2 CLR
18:52 1.7 °C -8.9 °C 34005.6 hPa South 32.8 km/h 32.8 km/h 32 % 0 mm 352.0 W/m2 CLR
18:57 1.8 °C -10.7 °C 34005.6 hPa South 38.8 km/h 38.8 km/h 26 % 0 mm 336.0 W/m2 CLR
19:02 1.8 °C -10.6 °C 34005.6 hPa SSW 38.8 km/h 38.8 km/h 26 % 0 mm 323.0 W/m2 CLR
19:07 1.8 °C -9.7 °C 34005.6 hPa South 29.8 km/h 29.8 km/h 29 % 0 mm 306.0 W/m2 CLR
19:12 1.7 °C -10.8 °C 34005.6 hPa South 50.7 km/h 50.7 km/h 26 % 0 mm 288.0 W/m2 CLR
19:17 1.7 °C -10.4 °C 34005.6 hPa SSE 50.7 km/h 50.7 km/h 27 % 0 mm 276.0 W/m2 CLR
19:22 1.7 °C -11.1 °C 34005.6 hPa South 53.6 km/h 53.6 km/h 25 % 0 mm 257.0 W/m2 CLR
19:27 1.7 °C -10.8 °C 34005.6 hPa South 47.6 km/h 47.6 km/h 26 % 0 mm 237.0 W/m2 CLR
19:32 1.6 °C -10.5 °C 34005.6 hPa South 50.7 km/h 50.7 km/h 27 % 0 mm 223.0 W/m2 CLR
19:37 1.6 °C -10.9 °C 34005.6 hPa SSE 50.7 km/h 50.7 km/h 26 % 0 mm 211.0 W/m2 CLR
19:42 1.5 °C -10.9 °C 34005.6 hPa SSE 56.6 km/h 56.6 km/h 26 % 0 mm 193.0 W/m2 CLR
19:47 1.4 °C -10.7 °C 34005.6 hPa South 53.6 km/h 53.6 km/h 27 % 0 mm 176.0 W/m2 CLR
19:52 1.4 °C -10.7 °C 34005.6 hPa SSE 62.6 km/h 62.6 km/h 27 % 0 mm 156.0 W/m2 CLR
19:58 1.3 °C -10.7 °C 34005.6 hPa SE 35.7 km/h 35.7 km/h 27 % 0 mm 141.0 W/m2 CLR
20:03 1.3 °C -10.7 °C 34005.6 hPa South 38.8 km/h 38.8 km/h 27 % 0 mm 123.0 W/m2 CLR
20:08 1.2 °C -10.6 °C 34005.6 hPa South 56.6 km/h 56.6 km/h 28 % 0 mm 107.0 W/m2 CLR
20:13 1.1 °C -10.6 °C 34005.6 hPa SSE 49.2 km/h 49.2 km/h 28 % 0 mm 90.0 W/m2 CLR
20:18 1 °C -10.7 °C 34005.6 hPa South 56.6 km/h 56.6 km/h 28 % 0 mm 74.0 W/m2 FEW
20:23 0.9 °C -10.5 °C 34015.8 hPa SSW 47.6 km/h 47.6 km/h 29 % 0 mm 35.0 W/m2 BKN
20:28 0.8 °C -10.6 °C 34005.6 hPa SSE 38.8 km/h 38.8 km/h 29 % 0 mm 28.0 W/m2 BKN
20:33 0.7 °C -10.7 °C 34015.8 hPa South 47.6 km/h 47.6 km/h 29 % 0 mm 25.0 W/m2 BKN
20:38 0.7 °C -10.7 °C 34015.8 hPa SSE 50.7 km/h 50.7 km/h 29 % 0 mm 23.0 W/m2 BKN
20:43 0.6 °C -10.7 °C 34015.8 hPa SSE 50.7 km/h 50.7 km/h 29 % 0 mm 21.0 W/m2 BKN
20:48 0.5 °C -10.8 °C 34015.8 hPa South 44.7 km/h 44.7 km/h 29 % 0 mm 21.0 W/m2 BKN
20:53 0.4 °C -10.9 °C 34015.8 hPa South 53.6 km/h 53.6 km/h 29 % 0 mm 19.0 W/m2 BKN
20:58 0.4 °C -10.9 °C 34015.8 hPa South 50.7 km/h 50.7 km/h 29 % 0 mm 16.0 W/m2 BKN
21:03 0.3 °C -10.7 °C 34015.8 hPa South 26.9 km/h 26.9 km/h 30 % 0 mm 12.0 W/m2 BKN
21:08 0.2 °C -10.5 °C 34015.8 hPa SE 26.9 km/h 26.9 km/h 31 % 0 mm 7.0 W/m2 BKN
21:13 0.1 °C -10.4 °C 34015.8 hPa SSE 29.8 km/h 29.8 km/h 32 % 0 mm 0.0 W/m2 OVC
21:18 -0.1 °C -10.4 °C 34015.8 hPa South 32.8 km/h 32.8 km/h 32 % 0 mm 0.0 W/m2 OVC
21:23 -0.1 °C -10.8 °C 34029.3 hPa South 29.8 km/h 29.8 km/h 31 % 0 mm 0.0 W/m2 OVC
21:28 -0.2 °C -10.6 °C 34029.3 hPa South 23.8 km/h 23.8 km/h 32 % 0 mm 0.0 W/m2 CLR
21:33 -0.2 °C -10.9 °C 34029.3 hPa South 28.5 km/h 28.5 km/h 31 % 0 mm 0.0 W/m2 CLR
21:38 -0.3 °C -10.9 °C 34029.3 hPa SSE 23.8 km/h 23.8 km/h 31 % 0 mm 0.0 W/m2 CLR
21:43 -0.3 °C -10.7 °C 34039.5 hPa South 15 km/h 15 km/h 32 % 0 mm 0.0 W/m2 CLR
21:48 -0.4 °C -10.8 °C 34039.5 hPa SE 15 km/h 15 km/h 32 % 0 mm 0.0 W/m2 CLR
21:53 -0.4 °C -11.1 °C 34049.6 hPa SSE 11.9 km/h 11.9 km/h 31 % 0 mm 0.0 W/m2 CLR
21:58 -0.4 °C -11.1 °C 34049.6 hPa Calm     31 % 0 mm 0.0 W/m2 CLR
22:03 -0.7 °C -9.8 °C 34049.6 hPa Calm     37 % 0 mm 0.0 W/m2 CLR
22:08 -0.9 °C -9.9 °C 34063.2 hPa Calm     37 % 0 mm 0.0 W/m2 CLR
22:13 -1.1 °C -10.2 °C 34063.2 hPa Calm     37 % 0 mm 0.0 W/m2 CLR
22:18 -1.3 °C -10.1 °C 34063.2 hPa ESE 6 km/h 6 km/h 38 % 0 mm 0.0 W/m2 CLR
22:23 -1.3 °C -10.2 °C 34063.2 hPa SE 15.6 km/h 15.6 km/h 38 % 0 mm 0.0 W/m2 CLR
22:28 -1.4 °C -10 °C 34063.2 hPa SE 15 km/h 15 km/h 39 % 0 mm 0.0 W/m2 CLR
22:33 -1.5 °C -10.1 °C 34073.3 hPa SSE 3.1 km/h 3.1 km/h 39 % 0 mm 0.0 W/m2 CLR
22:38 -1.6 °C -9.9 °C 34073.3 hPa SE 20.9 km/h 20.9 km/h 40 % 0 mm 0.0 W/m2 CLR
22:43 -1.6 °C -9.7 °C 34073.3 hPa Calm     41 % 0 mm 0.0 W/m2 CLR
22:48 -1.7 °C -9.8 °C 34073.3 hPa SSE 5.1 km/h 5.1 km/h 41 % 0 mm 0.0 W/m2 CLR
22:53 -1.7 °C -9.6 °C 34073.3 hPa ESE 15 km/h 15 km/h 42 % 0 mm 0.0 W/m2 CLR
22:58 -1.8 °C -9.7 °C 34086.9 hPa Calm     42 % 0 mm 0.0 W/m2 CLR
23:03 -1.8 °C -9.5 °C 34086.9 hPa ESE 10.3 km/h 10.3 km/h 43 % 0 mm 0.0 W/m2 CLR
23:08 -1.8 °C -9.3 °C 34086.9 hPa ESE 11.9 km/h 11.9 km/h 44 % 0 mm 0.0 W/m2 CLR
23:13 -1.9 °C -9.3 °C 34086.9 hPa SE 12.9 km/h 12.9 km/h 44 % 0 mm 0.0 W/m2 CLR
23:18 -1.9 °C -9.4 °C 34086.9 hPa East 6 km/h   44 % 0 mm 0.0 W/m2 CLR
23:23 -2 °C -9.5 °C 34097 hPa Calm     44 % 0 mm 0.0 W/m2 CLR
23:28 -2.1 °C -9.3 °C 34097 hPa Calm     45 % 0 mm 0.0 W/m2 CLR
23:33 -2.1 °C -9.2 °C 34097 hPa Calm     46 % 0 mm 0.0 W/m2 CLR
23:34 -2.1 °C -9.2 °C 34097 hPa Calm     46 % 0 mm 0.0 W/m2 CLR
23:39 -2.3 °C -8.9 °C 34097 hPa Calm     48 % 0 mm 0.0 W/m2 CLR
23:44 -2.4 °C -8.9 °C 34097 hPa Calm     49 % 0 mm 0.0 W/m2 CLR
23:49 -2.5 °C -8.8 °C 34097 hPa Calm     50 % 0 mm 0.0 W/m2 CLR
23:54 -2.6 °C -8.9 °C 34097 hPa Calm     50 % 0 mm 0.0 W/m2 CLR
23:59 -2.7 °C -8.8 °C 34097 hPa Calm     51 % 0 mm 0.0 W/m2 CLR
Lo Temps de Massalio
Compliments of Weather Underground - 1.25 mb